sensor_id;sensor_type;location;lat;lon;timestamp;temperature;humidity
23783;DHT22;12071;50.850;4.446;2023-03-14T00:00:10;12.10;99.90
23783;DHT22;12071;50.850;4.446;2023-03-14T00:02:37;12.00;99.90
23783;DHT22;12071;50.850;4.446;2023-03-14T00:05:03;12.00;1.00
23783;DHT22;12071;50.850;4.446;2023-03-14T00:07:33;11.90;1.00
23783;DHT22;12071;50.850;4.446;2023-03-14T00:10:01;11.80;99.90
23783;DHT22;12071;50.850;4.446;2023-03-14T00:12:27;11.80;99.90
23783;DHT22;12071;50.850;4.446;2023-03-14T00:14:53;11.80;1.00
23783;DHT22;12071;50.850;4.446;2023-03-14T00:17:18;11.80;1.00
23783;DHT22;12071;50.850;4.446;2023-03-14T00:19:44;11.70;99.90
23783;DHT22;12071;50.850;4.446;2023-03-14T00:22:09;11.70;99.90
23783;DHT22;12071;50.850;4.446;2023-03-14T00:24:35;11.70;99.90
23783;DHT22;12071;50.850;4.446;2023-03-14T00:27:01;11.70;1.00
23783;DHT22;12071;50.850;4.446;2023-03-14T00:29:26;11.70;1.00
23783;DHT22;12071;50.850;4.446;2023-03-14T00:31:52;11.60;99.90
23783;DHT22;12071;50.850;4.446;2023-03-14T00:34:18;11.70;99.90
23783;DHT22;12071;50.850;4.446;2023-03-14T00:36:44;11.70;99.90
23783;DHT22;12071;50.850;4.446;2023-03-14T00:39:10;11.70;59.10
23783;DHT22;12071;50.850;4.446;2023-03-14T00:41:36;11.60;99.90
23783;DHT22;12071;50.850;4.446;2023-03-14T00:44:01;11.70;99.90
23783;DHT22;12071;50.850;4.446;2023-03-14T00:46:27;11.80;99.90
23783;DHT22;12071;50.850;4.446;2023-03-14T00:48:52;11.90;51.10
23783;DHT22;12071;50.850;4.446;2023-03-14T00:51:18;11.80;1.00
23783;DHT22;12071;50.850;4.446;2023-03-14T00:53:44;11.90;1.00
23783;DHT22;12071;50.850;4.446;2023-03-14T00:56:11;11.80;1.00
23783;DHT22;12071;50.850;4.446;2023-03-14T00:58:38;11.80;43.90
23783;DHT22;12071;50.850;4.446;2023-03-14T01:01:09;11.80;22.10
23783;DHT22;12071;50.850;4.446;2023-03-14T01:03:35;11.70;77.30
23783;DHT22;12071;50.850;4.446;2023-03-14T01:06:13;11.70;79.10
23783;DHT22;12071;50.850;4.446;2023-03-14T01:08:39;11.80;28.80
23783;DHT22;12071;50.850;4.446;2023-03-14T01:11:13;11.70;93.70
23783;DHT22;12071;50.850;4.446;2023-03-14T01:13:39;11.70;99.90
23783;DHT22;12071;50.850;4.446;2023-03-14T01:16:07;11.80;85.00
23783;DHT22;12071;50.850;4.446;2023-03-14T01:18:34;11.80;26.70
23783;DHT22;12071;50.850;4.446;2023-03-14T01:21:02;11.70;42.20
23783;DHT22;12071;50.850;4.446;2023-03-14T01:23:28;11.70;97.40
23783;DHT22;12071;50.850;4.446;2023-03-14T01:25:53;11.60;99.90
23783;DHT22;12071;50.850;4.446;2023-03-14T01:28:19;11.60;99.90
23783;DHT22;12071;50.850;4.446;2023-03-14T01:30:44;11.50;99.90
23783;DHT22;12071;50.850;4.446;2023-03-14T01:33:10;11.60;99.90
23783;DHT22;12071;50.850;4.446;2023-03-14T01:35:38;11.50;99.90
23783;DHT22;12071;50.850;4.446;2023-03-14T01:38:03;11.40;99.90
23783;DHT22;12071;50.850;4.446;2023-03-14T01:40:29;11.40;99.90
23783;DHT22;12071;50.850;4.446;2023-03-14T01:42:56;11.30;99.90
23783;DHT22;12071;50.850;4.446;2023-03-14T01:48:19;11.20;99.90
23783;DHT22;12071;50.850;4.446;2023-03-14T01:50:45;11.20;99.90
23783;DHT22;12071;50.850;4.446;2023-03-14T01:53:11;11.20;99.90
23783;DHT22;12071;50.850;4.446;2023-03-14T01:55:36;11.20;99.90
23783;DHT22;12071;50.850;4.446;2023-03-14T01:58:04;11.20;99.90
23783;DHT22;12071;50.850;4.446;2023-03-14T02:00:30;11.30;99.90
23783;DHT22;12071;50.850;4.446;2023-03-14T02:03:02;11.20;1.00
23783;DHT22;12071;50.850;4.446;2023-03-14T02:05:32;11.20;1.00
23783;DHT22;12071;50.850;4.446;2023-03-14T02:08:01;11.10;1.00
23783;DHT22;12071;50.850;4.446;2023-03-14T02:10:31;10.90;16.40
23783;DHT22;12071;50.850;4.446;2023-03-14T02:13:02;10.80;90.30
23783;DHT22;12071;50.850;4.446;2023-03-14T02:15:28;10.60;99.90
23783;DHT22;12071;50.850;4.446;2023-03-14T02:17:54;10.50;99.90
23783;DHT22;12071;50.850;4.446;2023-03-14T02:20:45;10.70;99.90
23783;DHT22;12071;50.850;4.446;2023-03-14T02:23:15;10.80;99.90
23783;DHT22;12071;50.850;4.446;2023-03-14T02:25:53;10.70;99.90
23783;DHT22;12071;50.850;4.446;2023-03-14T02:28:20;10.60;99.90
23783;DHT22;12071;50.850;4.446;2023-03-14T02:30:46;10.60;99.90
23783;DHT22;12071;50.850;4.446;2023-03-14T02:33:15;10.60;99.90
23783;DHT22;12071;50.850;4.446;2023-03-14T02:35:55;10.60;99.90
23783;DHT22;12071;50.850;4.446;2023-03-14T02:38:35;10.60;99.90
23783;DHT22;12071;50.850;4.446;2023-03-14T02:41:02;10.60;99.90
23783;DHT22;12071;50.850;4.446;2023-03-14T02:43:28;10.60;99.90
23783;DHT22;12071;50.850;4.446;2023-03-14T02:45:54;10.60;99.90
23783;DHT22;12071;50.850;4.446;2023-03-14T02:48:24;10.70;99.90
23783;DHT22;12071;50.850;4.446;2023-03-14T02:50:54;10.60;99.90
23783;DHT22;12071;50.850;4.446;2023-03-14T02:53:25;10.50;99.90
23783;DHT22;12071;50.850;4.446;2023-03-14T02:55:50;10.50;99.90
23783;DHT22;12071;50.850;4.446;2023-03-14T02:58:17;10.50;99.90
23783;DHT22;12071;50.850;4.446;2023-03-14T03:00:43;10.40;99.90
23783;DHT22;12071;50.850;4.446;2023-03-14T03:03:09;10.50;99.90
23783;DHT22;12071;50.850;4.446;2023-03-14T03:05:34;10.40;99.90
23783;DHT22;12071;50.850;4.446;2023-03-14T03:08:00;10.60;99.90
23783;DHT22;12071;50.850;4.446;2023-03-14T03:10:26;10.70;99.90
23783;DHT22;12071;50.850;4.446;2023-03-14T03:12:52;10.70;99.90
23783;DHT22;12071;50.850;4.446;2023-03-14T03:15:18;10.70;99.90
23783;DHT22;12071;50.850;4.446;2023-03-14T03:17:43;10.80;99.90
23783;DHT22;12071;50.850;4.446;2023-03-14T03:20:09;10.70;99.90
23783;DHT22;12071;50.850;4.446;2023-03-14T03:22:38;10.80;99.90
23783;DHT22;12071;50.850;4.446;2023-03-14T03:25:05;10.80;99.90
23783;DHT22;12071;50.850;4.446;2023-03-14T03:27:36;10.80;99.90
23783;DHT22;12071;50.850;4.446;2023-03-14T03:30:04;10.80;99.90
23783;DHT22;12071;50.850;4.446;2023-03-14T03:32:30;10.80;99.90
23783;DHT22;12071;50.850;4.446;2023-03-14T03:34:56;10.80;99.90
23783;DHT22;12071;50.850;4.446;2023-03-14T03:37:22;10.80;99.90
23783;DHT22;12071;50.850;4.446;2023-03-14T03:39:50;10.80;99.90
23783;DHT22;12071;50.850;4.446;2023-03-14T03:42:16;10.70;99.90
23783;DHT22;12071;50.850;4.446;2023-03-14T03:44:41;10.70;1.00
23783;DHT22;12071;50.850;4.446;2023-03-14T03:47:07;10.70;1.00
23783;DHT22;12071;50.850;4.446;2023-03-14T03:49:32;10.80;1.00
23783;DHT22;12071;50.850;4.446;2023-03-14T03:51:58;10.80;1.00
23783;DHT22;12071;50.850;4.446;2023-03-14T03:54:24;10.90;1.00
23783;DHT22;12071;50.850;4.446;2023-03-14T03:56:50;10.90;1.00
23783;DHT22;12071;50.850;4.446;2023-03-14T03:59:16;10.80;1.00
23783;DHT22;12071;50.850;4.446;2023-03-14T04:01:42;10.80;1.00
23783;DHT22;12071;50.850;4.446;2023-03-14T04:04:07;10.80;1.00
23783;DHT22;12071;50.850;4.446;2023-03-14T04:06:33;10.80;1.00
23783;DHT22;12071;50.850;4.446;2023-03-14T04:08:59;10.60;1.00
23783;DHT22;12071;50.850;4.446;2023-03-14T04:11:25;10.70;1.00
23783;DHT22;12071;50.850;4.446;2023-03-14T04:13:50;10.70;1.00
23783;DHT22;12071;50.850;4.446;2023-03-14T04:16:23;10.70;1.00
23783;DHT22;12071;50.850;4.446;2023-03-14T04:18:50;10.60;1.00
23783;DHT22;12071;50.850;4.446;2023-03-14T04:21:16;10.60;1.00
23783;DHT22;12071;50.850;4.446;2023-03-14T04:23:42;10.80;1.00
23783;DHT22;12071;50.850;4.446;2023-03-14T04:26:07;10.80;1.00
23783;DHT22;12071;50.850;4.446;2023-03-14T04:28:33;10.80;1.00
23783;DHT22;12071;50.850;4.446;2023-03-14T04:31:10;10.70;1.00
23783;DHT22;12071;50.850;4.446;2023-03-14T04:33:36;10.70;1.00
23783;DHT22;12071;50.850;4.446;2023-03-14T04:36:03;10.80;1.00
23783;DHT22;12071;50.850;4.446;2023-03-14T04:38:29;11.00;1.00
23783;DHT22;12071;50.850;4.446;2023-03-14T04:40:54;10.90;1.00
23783;DHT22;12071;50.850;4.446;2023-03-14T04:43:20;10.90;1.00
23783;DHT22;12071;50.850;4.446;2023-03-14T04:45:46;10.90;1.00
23783;DHT22;12071;50.850;4.446;2023-03-14T04:48:12;10.80;1.00
23783;DHT22;12071;50.850;4.446;2023-03-14T04:50:38;10.80;1.00
23783;DHT22;12071;50.850;4.446;2023-03-14T04:53:04;10.70;1.00
23783;DHT22;12071;50.850;4.446;2023-03-14T04:55:31;10.70;1.00
23783;DHT22;12071;50.850;4.446;2023-03-14T04:57:58;10.70;1.00
23783;DHT22;12071;50.850;4.446;2023-03-14T05:00:24;10.70;1.00
23783;DHT22;12071;50.850;4.446;2023-03-14T05:02:49;10.60;1.00
23783;DHT22;12071;50.850;4.446;2023-03-14T05:05:15;10.50;1.00
23783;DHT22;12071;50.850;4.446;2023-03-14T05:07:41;10.60;1.00
23783;DHT22;12071;50.850;4.446;2023-03-14T05:10:06;10.60;1.00
23783;DHT22;12071;50.850;4.446;2023-03-14T05:12:32;10.60;1.00
23783;DHT22;12071;50.850;4.446;2023-03-14T05:14:58;10.60;1.00
23783;DHT22;12071;50.850;4.446;2023-03-14T05:17:23;10.70;1.00
23783;DHT22;12071;50.850;4.446;2023-03-14T05:19:49;10.70;1.00
23783;DHT22;12071;50.850;4.446;2023-03-14T05:22:14;10.80;1.00
23783;DHT22;12071;50.850;4.446;2023-03-14T05:24:40;10.90;1.00
23783;DHT22;12071;50.850;4.446;2023-03-14T05:27:06;10.80;1.00
23783;DHT22;12071;50.850;4.446;2023-03-14T05:29:31;10.70;1.00
23783;DHT22;12071;50.850;4.446;2023-03-14T05:31:57;10.60;1.00
23783;DHT22;12071;50.850;4.446;2023-03-14T05:34:22;10.50;1.00
23783;DHT22;12071;50.850;4.446;2023-03-14T05:36:48;10.50;1.00
23783;DHT22;12071;50.850;4.446;2023-03-14T05:39:13;10.40;1.00
23783;DHT22;12071;50.850;4.446;2023-03-14T05:41:39;10.50;1.00
23783;DHT22;12071;50.850;4.446;2023-03-14T05:44:05;10.60;1.00
23783;DHT22;12071;50.850;4.446;2023-03-14T05:46:30;10.60;1.00
23783;DHT22;12071;50.850;4.446;2023-03-14T05:48:57;10.50;1.00
23783;DHT22;12071;50.850;4.446;2023-03-14T05:51:23;10.60;1.00
23783;DHT22;12071;50.850;4.446;2023-03-14T05:53:48;10.50;1.00
23783;DHT22;12071;50.850;4.446;2023-03-14T05:56:14;10.60;1.00
23783;DHT22;12071;50.850;4.446;2023-03-14T05:58:40;10.70;1.00
23783;DHT22;12071;50.850;4.446;2023-03-14T06:01:06;10.50;1.00
23783;DHT22;12071;50.850;4.446;2023-03-14T06:03:32;10.60;1.00
23783;DHT22;12071;50.850;4.446;2023-03-14T06:05:58;10.50;1.00
23783;DHT22;12071;50.850;4.446;2023-03-14T06:08:24;10.50;1.00
23783;DHT22;12071;50.850;4.446;2023-03-14T06:10:50;10.40;1.00
23783;DHT22;12071;50.850;4.446;2023-03-14T06:13:16;10.40;1.00
23783;DHT22;12071;50.850;4.446;2023-03-14T06:15:42;10.50;1.00
23783;DHT22;12071;50.850;4.446;2023-03-14T06:18:08;10.60;1.00
23783;DHT22;12071;50.850;4.446;2023-03-14T06:20:36;10.50;1.00
23783;DHT22;12071;50.850;4.446;2023-03-14T06:23:05;10.50;1.00
23783;DHT22;12071;50.850;4.446;2023-03-14T06:25:31;10.50;1.00
23783;DHT22;12071;50.850;4.446;2023-03-14T06:27:57;10.50;1.00
23783;DHT22;12071;50.850;4.446;2023-03-14T06:30:22;10.60;1.00
23783;DHT22;12071;50.850;4.446;2023-03-14T06:32:48;10.60;1.00
23783;DHT22;12071;50.850;4.446;2023-03-14T06:35:13;10.70;1.00
23783;DHT22;12071;50.850;4.446;2023-03-14T06:37:39;10.60;1.00
23783;DHT22;12071;50.850;4.446;2023-03-14T06:40:05;10.50;1.00
23783;DHT22;12071;50.850;4.446;2023-03-14T06:42:32;10.50;1.00
23783;DHT22;12071;50.850;4.446;2023-03-14T06:44:58;10.40;1.00
23783;DHT22;12071;50.850;4.446;2023-03-14T06:47:24;10.40;1.00
23783;DHT22;12071;50.850;4.446;2023-03-14T06:49:49;10.40;1.00
23783;DHT22;12071;50.850;4.446;2023-03-14T06:52:15;10.50;1.00
23783;DHT22;12071;50.850;4.446;2023-03-14T06:54:40;10.40;1.00
23783;DHT22;12071;50.850;4.446;2023-03-14T06:57:06;9.90;1.00
23783;DHT22;12071;50.850;4.446;2023-03-14T06:59:31;9.50;1.00
23783;DHT22;12071;50.850;4.446;2023-03-14T07:01:57;9.20;1.00
23783;DHT22;12071;50.850;4.446;2023-03-14T07:04:23;9.00;1.00
23783;DHT22;12071;50.850;4.446;2023-03-14T07:06:48;8.80;1.00
23783;DHT22;12071;50.850;4.446;2023-03-14T07:09:14;8.70;1.00
23783;DHT22;12071;50.850;4.446;2023-03-14T07:11:42;8.60;1.00
23783;DHT22;12071;50.850;4.446;2023-03-14T07:14:08;8.40;1.00
23783;DHT22;12071;50.850;4.446;2023-03-14T07:16:34;8.10;1.00
23783;DHT22;12071;50.850;4.446;2023-03-14T07:19:00;8.00;1.00
23783;DHT22;12071;50.850;4.446;2023-03-14T07:21:26;7.90;1.00
23783;DHT22;12071;50.850;4.446;2023-03-14T07:23:52;7.90;1.00
23783;DHT22;12071;50.850;4.446;2023-03-14T07:26:17;7.70;1.00
23783;DHT22;12071;50.850;4.446;2023-03-14T07:28:43;7.60;1.00
23783;DHT22;12071;50.850;4.446;2023-03-14T07:31:09;7.50;1.00
23783;DHT22;12071;50.850;4.446;2023-03-14T07:33:35;7.40;1.00
23783;DHT22;12071;50.850;4.446;2023-03-14T07:36:01;7.40;1.00
23783;DHT22;12071;50.850;4.446;2023-03-14T07:38:27;7.40;1.00
23783;DHT22;12071;50.850;4.446;2023-03-14T07:41:05;7.40;1.00
23783;DHT22;12071;50.850;4.446;2023-03-14T07:43:31;7.40;1.00
23783;DHT22;12071;50.850;4.446;2023-03-14T07:45:57;7.40;1.00
23783;DHT22;12071;50.850;4.446;2023-03-14T07:48:23;7.40;1.00
23783;DHT22;12071;50.850;4.446;2023-03-14T07:50:51;7.30;1.00
23783;DHT22;12071;50.850;4.446;2023-03-14T07:53:17;7.30;1.00
23783;DHT22;12071;50.850;4.446;2023-03-14T07:55:44;7.30;1.00
23783;DHT22;12071;50.850;4.446;2023-03-14T07:58:09;7.30;1.00
23783;DHT22;12071;50.850;4.446;2023-03-14T08:00:35;7.50;1.00
23783;DHT22;12071;50.850;4.446;2023-03-14T08:03:01;7.50;1.00
23783;DHT22;12071;50.850;4.446;2023-03-14T08:05:27;7.50;1.00
23783;DHT22;12071;50.850;4.446;2023-03-14T08:07:52;7.50;1.00
23783;DHT22;12071;50.850;4.446;2023-03-14T08:10:18;7.40;1.00
23783;DHT22;12071;50.850;4.446;2023-03-14T08:12:50;7.50;1.00
23783;DHT22;12071;50.850;4.446;2023-03-14T08:15:16;7.30;1.00
23783;DHT22;12071;50.850;4.446;2023-03-14T08:17:42;7.30;1.00
23783;DHT22;12071;50.850;4.446;2023-03-14T08:20:08;7.30;1.00
23783;DHT22;12071;50.850;4.446;2023-03-14T08:22:36;7.30;1.00
23783;DHT22;12071;50.850;4.446;2023-03-14T08:25:03;7.40;1.00
23783;DHT22;12071;50.850;4.446;2023-03-14T08:27:28;7.40;1.00
23783;DHT22;12071;50.850;4.446;2023-03-14T08:29:54;7.40;1.00
23783;DHT22;12071;50.850;4.446;2023-03-14T08:32:19;7.50;1.00
23783;DHT22;12071;50.850;4.446;2023-03-14T08:34:46;7.50;1.00
23783;DHT22;12071;50.850;4.446;2023-03-14T08:37:11;7.40;1.00
23783;DHT22;12071;50.850;4.446;2023-03-14T08:39:37;7.50;1.00
23783;DHT22;12071;50.850;4.446;2023-03-14T08:42:02;7.50;1.00
23783;DHT22;12071;50.850;4.446;2023-03-14T08:44:28;7.40;1.00
23783;DHT22;12071;50.850;4.446;2023-03-14T08:46:54;7.40;1.00
23783;DHT22;12071;50.850;4.446;2023-03-14T08:49:20;7.20;1.00
23783;DHT22;12071;50.850;4.446;2023-03-14T08:51:45;7.20;1.00
23783;DHT22;12071;50.850;4.446;2023-03-14T08:54:11;7.10;1.00
23783;DHT22;12071;50.850;4.446;2023-03-14T08:56:37;7.10;1.00
23783;DHT22;12071;50.850;4.446;2023-03-14T08:59:05;7.00;1.00
23783;DHT22;12071;50.850;4.446;2023-03-14T09:01:31;7.00;1.00
23783;DHT22;12071;50.850;4.446;2023-03-14T09:03:56;6.90;1.00
23783;DHT22;12071;50.850;4.446;2023-03-14T09:06:22;7.00;1.00
23783;DHT22;12071;50.850;4.446;2023-03-14T09:08:47;7.00;1.00
23783;DHT22;12071;50.850;4.446;2023-03-14T09:11:13;7.00;1.00
23783;DHT22;12071;50.850;4.446;2023-03-14T09:13:40;7.00;1.00
23783;DHT22;12071;50.850;4.446;2023-03-14T09:16:06;7.00;1.00
23783;DHT22;12071;50.850;4.446;2023-03-14T09:18:32;6.90;1.00
23783;DHT22;12071;50.850;4.446;2023-03-14T09:20:58;6.80;1.00
23783;DHT22;12071;50.850;4.446;2023-03-14T09:23:23;6.80;1.00
23783;DHT22;12071;50.850;4.446;2023-03-14T09:25:49;6.80;1.00
23783;DHT22;12071;50.850;4.446;2023-03-14T09:28:15;6.70;1.00
23783;DHT22;12071;50.850;4.446;2023-03-14T09:30:40;6.80;1.00
23783;DHT22;12071;50.850;4.446;2023-03-14T09:33:06;6.80;1.00
23783;DHT22;12071;50.850;4.446;2023-03-14T09:35:33;6.80;1.00
23783;DHT22;12071;50.850;4.446;2023-03-14T09:37:59;6.80;1.00
23783;DHT22;12071;50.850;4.446;2023-03-14T09:40:32;6.70;1.00
23783;DHT22;12071;50.850;4.446;2023-03-14T09:42:59;6.90;1.00
23783;DHT22;12071;50.850;4.446;2023-03-14T09:45:31;6.90;1.00
23783;DHT22;12071;50.850;4.446;2023-03-14T09:47:58;6.80;1.00
23783;DHT22;12071;50.850;4.446;2023-03-14T09:50:27;6.70;1.00
23783;DHT22;12071;50.850;4.446;2023-03-14T09:52:56;6.80;1.00
23783;DHT22;12071;50.850;4.446;2023-03-14T09:55:24;6.80;1.00
23783;DHT22;12071;50.850;4.446;2023-03-14T09:57:55;7.00;1.00
23783;DHT22;12071;50.850;4.446;2023-03-14T10:00:25;6.80;1.00
23783;DHT22;12071;50.850;4.446;2023-03-14T10:05:40;6.80;1.00
23783;DHT22;12071;50.850;4.446;2023-03-14T10:08:12;6.90;1.00
23783;DHT22;12071;50.850;4.446;2023-03-14T10:10:38;6.90;1.00
23783;DHT22;12071;50.850;4.446;2023-03-14T10:13:20;7.00;1.00
23783;DHT22;12071;50.850;4.446;2023-03-14T10:15:51;7.10;1.00
23783;DHT22;12071;50.850;4.446;2023-03-14T10:18:17;7.20;1.00
23783;DHT22;12071;50.850;4.446;2023-03-14T10:20:45;7.40;1.00
23783;DHT22;12071;50.850;4.446;2023-03-14T10:25:39;7.50;99.90
23783;DHT22;12071;50.850;4.446;2023-03-14T10:28:10;7.60;1.00
23783;DHT22;12071;50.850;4.446;2023-03-14T10:30:56;7.40;99.90
23783;DHT22;12071;50.850;4.446;2023-03-14T10:33:23;7.20;1.00
23783;DHT22;12071;50.850;4.446;2023-03-14T10:36:21;7.10;1.00
23783;DHT22;12071;50.850;4.446;2023-03-14T10:38:48;7.00;1.00
23783;DHT22;12071;50.850;4.446;2023-03-14T10:41:25;6.90;1.00
23783;DHT22;12071;50.850;4.446;2023-03-14T10:43:54;6.70;1.00
23783;DHT22;12071;50.850;4.446;2023-03-14T10:46:23;6.60;1.00
23783;DHT22;12071;50.850;4.446;2023-03-14T10:48:49;6.50;1.00
23783;DHT22;12071;50.850;4.446;2023-03-14T10:53:45;6.50;1.00
23783;DHT22;12071;50.850;4.446;2023-03-14T10:56:15;6.30;1.00
23783;DHT22;12071;50.850;4.446;2023-03-14T10:58:46;6.30;1.00
23783;DHT22;12071;50.850;4.446;2023-03-14T11:09:42;6.40;1.00
23783;DHT22;12071;50.850;4.446;2023-03-14T11:15:09;6.30;1.00
23783;DHT22;12071;50.850;4.446;2023-03-14T11:17:46;6.30;1.00
23783;DHT22;12071;50.850;4.446;2023-03-14T11:20:35;6.40;1.00
23783;DHT22;12071;50.850;4.446;2023-03-14T11:23:14;6.40;1.00
23783;DHT22;12071;50.850;4.446;2023-03-14T11:25:54;6.40;1.00
23783;DHT22;12071;50.850;4.446;2023-03-14T11:28:44;6.30;1.00
23783;DHT22;12071;50.850;4.446;2023-03-14T11:31:31;6.20;1.00
23783;DHT22;12071;50.850;4.446;2023-03-14T11:34:16;6.00;1.00
23783;DHT22;12071;50.850;4.446;2023-03-14T11:37:04;5.80;1.00
23783;DHT22;12071;50.850;4.446;2023-03-14T11:39:39;5.80;1.00
23783;DHT22;12071;50.850;4.446;2023-03-14T11:42:12;5.80;1.00
23783;DHT22;12071;50.850;4.446;2023-03-14T11:44:40;5.60;1.00
23783;DHT22;12071;50.850;4.446;2023-03-14T11:47:15;5.60;1.00
23783;DHT22;12071;50.850;4.446;2023-03-14T11:49:47;5.60;1.00
23783;DHT22;12071;50.850;4.446;2023-03-14T11:52:30;5.60;1.00
23783;DHT22;12071;50.850;4.446;2023-03-14T11:57:33;5.70;1.00
23783;DHT22;12071;50.850;4.446;2023-03-14T12:00:18;5.80;1.00
23783;DHT22;12071;50.850;4.446;2023-03-14T12:02:53;5.80;1.00
23783;DHT22;12071;50.850;4.446;2023-03-14T12:10:49;5.60;1.00
23783;DHT22;12071;50.850;4.446;2023-03-14T12:13:17;5.70;1.00
23783;DHT22;12071;50.850;4.446;2023-03-14T12:15:50;5.80;1.00
23783;DHT22;12071;50.850;4.446;2023-03-14T12:18:28;6.00;1.00
23783;DHT22;12071;50.850;4.446;2023-03-14T12:21:17;6.10;1.00
23783;DHT22;12071;50.850;4.446;2023-03-14T12:23:50;6.10;1.00
23783;DHT22;12071;50.850;4.446;2023-03-14T12:26:27;5.90;1.00
23783;DHT22;12071;50.850;4.446;2023-03-14T12:42:40;6.10;1.00
23783;DHT22;12071;50.850;4.446;2023-03-14T12:45:24;6.10;1.00
23783;DHT22;12071;50.850;4.446;2023-03-14T12:50:32;5.90;1.00
23783;DHT22;12071;50.850;4.446;2023-03-14T13:00:55;5.80;1.00
23783;DHT22;12071;50.850;4.446;2023-03-14T13:03:24;5.90;1.00
23783;DHT22;12071;50.850;4.446;2023-03-14T13:06:00;5.80;1.00
23783;DHT22;12071;50.850;4.446;2023-03-14T13:11:04;6.20;1.00
23783;DHT22;12071;50.850;4.446;2023-03-14T13:13:34;6.10;1.00
23783;DHT22;12071;50.850;4.446;2023-03-14T13:16:01;6.20;1.00
23783;DHT22;12071;50.850;4.446;2023-03-14T13:21:35;6.40;1.00
23783;DHT22;12071;50.850;4.446;2023-03-14T13:24:03;6.40;1.00
23783;DHT22;12071;50.850;4.446;2023-03-14T13:26:55;6.40;1.00
23783;DHT22;12071;50.850;4.446;2023-03-14T13:29:29;6.40;1.00
23783;DHT22;12071;50.850;4.446;2023-03-14T13:32:27;6.30;1.00
23783;DHT22;12071;50.850;4.446;2023-03-14T13:34:59;6.00;1.00
23783;DHT22;12071;50.850;4.446;2023-03-14T13:37:26;6.10;1.00
23783;DHT22;12071;50.850;4.446;2023-03-14T13:39:54;6.20;1.00
23783;DHT22;12071;50.850;4.446;2023-03-14T13:42:21;6.30;1.00
23783;DHT22;12071;50.850;4.446;2023-03-14T13:44:51;6.20;1.00
23783;DHT22;12071;50.850;4.446;2023-03-14T13:47:20;6.40;1.00
23783;DHT22;12071;50.850;4.446;2023-03-14T13:49:48;6.60;1.00
23783;DHT22;12071;50.850;4.446;2023-03-14T13:52:27;6.50;1.00
23783;DHT22;12071;50.850;4.446;2023-03-14T13:54:54;6.60;1.00
23783;DHT22;12071;50.850;4.446;2023-03-14T13:57:20;7.00;1.00
23783;DHT22;12071;50.850;4.446;2023-03-14T13:59:59;7.30;1.00
23783;DHT22;12071;50.850;4.446;2023-03-14T14:02:26;7.20;1.00
23783;DHT22;12071;50.850;4.446;2023-03-14T14:04:52;7.30;1.00
23783;DHT22;12071;50.850;4.446;2023-03-14T14:07:18;7.30;1.00
23783;DHT22;12071;50.850;4.446;2023-03-14T14:09:47;7.30;1.00
23783;DHT22;12071;50.850;4.446;2023-03-14T14:12:35;7.20;1.00
23783;DHT22;12071;50.850;4.446;2023-03-14T14:15:10;7.20;1.00
23783;DHT22;12071;50.850;4.446;2023-03-14T14:17:44;7.30;1.00
23783;DHT22;12071;50.850;4.446;2023-03-14T14:20:20;7.40;1.00
23783;DHT22;12071;50.850;4.446;2023-03-14T14:22:46;7.50;1.00
23783;DHT22;12071;50.850;4.446;2023-03-14T14:25:13;7.50;1.00
23783;DHT22;12071;50.850;4.446;2023-03-14T14:27:43;7.50;1.00
23783;DHT22;12071;50.850;4.446;2023-03-14T14:32:47;7.10;99.90
23783;DHT22;12071;50.850;4.446;2023-03-14T14:35:31;7.10;99.90
23783;DHT22;12071;50.850;4.446;2023-03-14T14:37:58;7.00;99.90
23783;DHT22;12071;50.850;4.446;2023-03-14T14:40:26;7.00;1.00
23783;DHT22;12071;50.850;4.446;2023-03-14T14:43:02;7.00;99.90
23783;DHT22;12071;50.850;4.446;2023-03-14T14:45:29;6.90;1.00
23783;DHT22;12071;50.850;4.446;2023-03-14T14:47:59;6.90;99.90
23783;DHT22;12071;50.850;4.446;2023-03-14T14:50:33;6.80;99.90
23783;DHT22;12071;50.850;4.446;2023-03-14T14:53:01;6.80;98.70
23783;DHT22;12071;50.850;4.446;2023-03-14T14:55:38;6.40;1.00
23783;DHT22;12071;50.850;4.446;2023-03-14T14:58:39;6.10;99.90
23783;DHT22;12071;50.850;4.446;2023-03-14T15:01:11;5.90;37.30
23783;DHT22;12071;50.850;4.446;2023-03-14T15:03:42;5.80;99.90
23783;DHT22;12071;50.850;4.446;2023-03-14T15:06:08;5.70;1.00
23783;DHT22;12071;50.850;4.446;2023-03-14T15:08:37;5.50;99.90
23783;DHT22;12071;50.850;4.446;2023-03-14T15:11:02;5.70;99.90
23783;DHT22;12071;50.850;4.446;2023-03-14T15:13:28;5.80;4.00
23783;DHT22;12071;50.850;4.446;2023-03-14T15:15:53;5.70;43.70
23783;DHT22;12071;50.850;4.446;2023-03-14T15:18:24;5.80;1.00
23783;DHT22;12071;50.850;4.446;2023-03-14T15:20:51;6.00;86.60
23783;DHT22;12071;50.850;4.446;2023-03-14T15:23:21;6.00;1.00
23783;DHT22;12071;50.850;4.446;2023-03-14T15:25:47;6.10;1.00
23783;DHT22;12071;50.850;4.446;2023-03-14T15:28:22;6.10;99.90
23783;DHT22;12071;50.850;4.446;2023-03-14T15:30:51;6.20;1.00
23783;DHT22;12071;50.850;4.446;2023-03-14T15:33:16;6.20;99.90
23783;DHT22;12071;50.850;4.446;2023-03-14T15:35:42;6.20;99.90
23783;DHT22;12071;50.850;4.446;2023-03-14T15:38:14;6.50;70.90
23783;DHT22;12071;50.850;4.446;2023-03-14T15:40:40;6.50;99.90
23783;DHT22;12071;50.850;4.446;2023-03-14T15:43:07;6.60;99.90
23783;DHT22;12071;50.850;4.446;2023-03-14T15:45:32;6.70;1.00
23783;DHT22;12071;50.850;4.446;2023-03-14T15:47:58;6.80;1.00
23783;DHT22;12071;50.850;4.446;2023-03-14T15:50:24;7.10;1.00
23783;DHT22;12071;50.850;4.446;2023-03-14T15:52:51;7.10;99.90
23783;DHT22;12071;50.850;4.446;2023-03-14T15:55:17;7.60;99.90
23783;DHT22;12071;50.850;4.446;2023-03-14T15:57:43;7.10;99.90
23783;DHT22;12071;50.850;4.446;2023-03-14T16:00:15;7.10;99.90
23783;DHT22;12071;50.850;4.446;2023-03-14T16:02:43;7.00;25.70
23783;DHT22;12071;50.850;4.446;2023-03-14T16:05:12;6.80;52.60
23783;DHT22;12071;50.850;4.446;2023-03-14T16:07:38;6.60;1.00
23783;DHT22;12071;50.850;4.446;2023-03-14T16:10:05;6.40;1.00
23783;DHT22;12071;50.850;4.446;2023-03-14T16:12:33;6.40;99.90
23783;DHT22;12071;50.850;4.446;2023-03-14T16:14:59;6.40;99.90
23783;DHT22;12071;50.850;4.446;2023-03-14T16:17:24;6.40;99.90
23783;DHT22;12071;50.850;4.446;2023-03-14T16:19:50;6.30;99.90
23783;DHT22;12071;50.850;4.446;2023-03-14T16:22:15;6.30;99.90
23783;DHT22;12071;50.850;4.446;2023-03-14T16:24:41;6.30;99.90
23783;DHT22;12071;50.850;4.446;2023-03-14T16:27:07;6.30;99.90
23783;DHT22;12071;50.850;4.446;2023-03-14T16:29:33;6.40;99.90
23783;DHT22;12071;50.850;4.446;2023-03-14T16:31:58;6.40;99.90
23783;DHT22;12071;50.850;4.446;2023-03-14T16:34:24;6.30;99.90
23783;DHT22;12071;50.850;4.446;2023-03-14T16:36:50;6.20;99.90
23783;DHT22;12071;50.850;4.446;2023-03-14T16:39:18;6.30;99.90
23783;DHT22;12071;50.850;4.446;2023-03-14T16:41:44;6.40;99.90
23783;DHT22;12071;50.850;4.446;2023-03-14T16:44:10;6.30;99.90
23783;DHT22;12071;50.850;4.446;2023-03-14T16:46:35;6.40;99.90
23783;DHT22;12071;50.850;4.446;2023-03-14T16:49:02;6.40;99.90
23783;DHT22;12071;50.850;4.446;2023-03-14T16:51:28;6.40;99.90
23783;DHT22;12071;50.850;4.446;2023-03-14T16:53:54;6.30;99.90
23783;DHT22;12071;50.850;4.446;2023-03-14T16:56:20;6.30;99.90
23783;DHT22;12071;50.850;4.446;2023-03-14T16:58:47;6.30;1.00